This is the latest recevied weather packets stored in our database for station/object DO1BDB-12. If no packets are shown the sender has not sent any weather packets the latest 1 day(s).
| Time | Temp. | Humidity | Pressure | Rain* | Wind** | Luminosity | Snow |
|---|---|---|---|---|---|---|---|
| 1778070004 | 12.22° C | 70% | 100.9 hPa | - | - | - | - |
| 1778069675 | 11.67° C | 72% | 100.9 hPa | - | - | - | - |
| 1778069609 | 11.67° C | 73% | 100.9 hPa | - | - | - | - |
| 1778069543 | 12.22° C | 74% | 100.9 hPa | - | - | - | - |
| 1778069280 | 11.11° C | 77% | 100.9 hPa | - | - | - | - |
| 1778069214 | 12.22° C | 76% | 100.9 hPa | - | - | - | - |
| 1778069148 | 11.11° C | 76% | 100.9 hPa | - | - | - | - |
| 1778068819 | 12.22° C | 77% | 100.9 hPa | - | - | - | - |
| 1778068753 | 11.67° C | 76% | 100.9 hPa | - | - | - | - |
| 1778068424 | 12.22° C | 75% | 100.9 hPa | - | - | - | - |
| 1778068358 | 12.22° C | 75% | 100.9 hPa | - | - | - | - |
| 1778068226 | 12.78° C | 75% | 100.9 hPa | - | - | - | - |
| 1778068029 | 12.78° C | 74% | 100.9 hPa | - | - | - | - |
| 1778067963 | 12.78° C | 75% | 100.9 hPa | - | - | - | - |
| 1778067897 | 12.78° C | 77% | 100.9 hPa | - | - | - | - |
| 1778067568 | 12.22° C | 77% | 100.9 hPa | - | - | - | - |
| 1778067502 | 11.67° C | 78% | 100.9 hPa | - | - | - | - |
| 1778067436 | 11.67° C | 78% | 100.9 hPa | - | - | - | - |
| 1778067173 | 12.22° C | 78% | 100.9 hPa | - | - | - | - |
| 1778067107 | 12.22° C | 78% | 100.9 hPa | - | - | - | - |
| 1778067041 | 12.22° C | 78% | 100.9 hPa | - | - | - | - |
| 1778066975 | 11.67° C | 79% | 100.9 hPa | - | - | - | - |
| 1778066778 | 13.33° C | 75% | 100.9 hPa | - | - | - | - |
| 1778066646 | 12.22° C | 76% | 100.9 hPa | - | - | - | - |
| 1778066317 | 12.78° C | 77% | 100.9 hPa | - | - | - | - |
* Rain since midnight (hover to see other rain measurements)
** Current wind speed in m/s (hover to see current wind gust speed)